Airfield :
LOGIN :

Register | Disclaimer

   EN    FR    IT 

 










Legend :    VFR   Marginal VFR   IFR   Intensive IFR   Very Intensive IFR
Visi :
Ceiling :
>= 8 km
>= 3000ft
5 to 8 km
1000 to 3000 ft
1500m to 5 km
500 to 1000 ft
800 to 1500m
200 to 500 ft
< 800m
< 200 ft
Symbols :   Thunderstorms  Fog  Heavy snow  Heavy precipitations  Wind > 20 kt
SIGMETs :     Misc.  Thunderstorms  Icing  Turbulence  Mountain Waves  Volcanic Ashes






- Airport Elevation : -15 ft
- IATA code : RTM


EHRD - Rotterdam Zestienhoven

CURRENT METAR :
  • 051925Z AUTO 36007KT 9999 FEW018 06/04 Q1043 NOSIG

EXPIRED METARs :
  • 051855Z AUTO 01006KT 340V060 9999 SCT018 06/04 Q1043 NOSIG
  • 051825Z AUTO 36007KT 340V050 9999 BKN020 BKN023 06/04 Q1043 NOSIG
  • 051755Z AUTO 36005KT 320V030 9999 OVC020 06/05 Q1043 NOSIG
  • 051725Z AUTO 36008KT 320V030 9999 FEW025 06/04 Q1042 NOSIG
  • 051655Z AUTO 01008KT 340V040 9999 FEW029 06/04 Q1042 NOSIG

TAF TAF EHRD
Valid from the 05 at 18:00 until the 07 at 00:00 UTC


051719Z 0518/0624 36007KT CAVOK
BECMG 0523/0602 4500 MIFG
PROB30
TEMPO 0603/0609 0600 BCFG
BECMG 0608/0611 VRB02KT CAVOK
BECMG 0619/0622 4500 MIFG
PROB30
TEMPO 0622/0624 0600 BCFG



MET'MAP, your aeronautical weather chart ! - Copyright ORBIFLY December 2007 - Disclaimer

ORBIFLY MET'MAP TEAM :

Programming & Development : Alexandra Zaïnal
Original concept : Baudouin d'Aumeries
Technical & hardware support : Manuel Goepfert
Assistance : Marc-Olivier Méhu




SOURCES & CREDITS :

   NOAA